sensor_id;sensor_type;location;lat;lon;timestamp;P1;durP1;ratioP1;P2;durP2;ratioP2
5813;SDS011;2933;52.302;8.134;2023-11-19T00:04:35;6.50;;;5.67;;
5813;SDS011;2933;52.302;8.134;2023-11-19T00:09:39;6.00;;;5.50;;
5813;SDS011;2933;52.302;8.134;2023-11-19T00:14:42;7.00;;;6.00;;
5813;SDS011;2933;52.302;8.134;2023-11-19T00:19:44;7.07;;;6.37;;
5813;SDS011;2933;52.302;8.134;2023-11-19T00:24:46;6.33;;;5.73;;
5813;SDS011;2933;52.302;8.134;2023-11-19T00:29:49;6.03;;;5.47;;
5813;SDS011;2933;52.302;8.134;2023-11-19T00:34:51;5.27;;;4.97;;
5813;SDS011;2933;52.302;8.134;2023-11-19T00:39:52;4.47;;;4.07;;
5813;SDS011;2933;52.302;8.134;2023-11-19T00:44:57;5.20;;;4.80;;
5813;SDS011;2933;52.302;8.134;2023-11-19T00:49:59;5.00;;;4.70;;
5813;SDS011;2933;52.302;8.134;2023-11-19T00:55:00;4.90;;;4.50;;
5813;SDS011;2933;52.302;8.134;2023-11-19T01:00:04;5.33;;;4.93;;
5813;SDS011;2933;52.302;8.134;2023-11-19T01:05:09;4.70;;;4.30;;
5813;SDS011;2933;52.302;8.134;2023-11-19T01:10:14;4.77;;;4.33;;
5813;SDS011;2933;52.302;8.134;2023-11-19T01:15:18;6.67;;;6.07;;
5813;SDS011;2933;52.302;8.134;2023-11-19T01:20:20;7.80;;;6.00;;
5813;SDS011;2933;52.302;8.134;2023-11-19T01:25:22;6.47;;;5.57;;
5813;SDS011;2933;52.302;8.134;2023-11-19T01:30:25;6.87;;;6.27;;
5813;SDS011;2933;52.302;8.134;2023-11-19T01:35:27;6.50;;;5.90;;
5813;SDS011;2933;52.302;8.134;2023-11-19T01:40:30;10.13;;;7.27;;
5813;SDS011;2933;52.302;8.134;2023-11-19T01:45:34;9.90;;;7.60;;
5813;SDS011;2933;52.302;8.134;2023-11-19T01:50:37;9.70;;;8.17;;
5813;SDS011;2933;52.302;8.134;2023-11-19T01:55:40;10.27;;;8.90;;
5813;SDS011;2933;52.302;8.134;2023-11-19T02:00:44;16.03;;;10.30;;
5813;SDS011;2933;52.302;8.134;2023-11-19T02:05:47;15.43;;;10.50;;
5813;SDS011;2933;52.302;8.134;2023-11-19T02:10:50;17.23;;;11.37;;
5813;SDS011;2933;52.302;8.134;2023-11-19T02:15:53;13.87;;;10.70;;
5813;SDS011;2933;52.302;8.134;2023-11-19T02:20:56;17.23;;;11.20;;
5813;SDS011;2933;52.302;8.134;2023-11-19T02:26:00;16.87;;;11.17;;
5813;SDS011;2933;52.302;8.134;2023-11-19T02:31:06;17.50;;;11.50;;
5813;SDS011;2933;52.302;8.134;2023-11-19T02:36:09;17.53;;;11.37;;
5813;SDS011;2933;52.302;8.134;2023-11-19T02:41:11;17.00;;;11.03;;
5813;SDS011;2933;52.302;8.134;2023-11-19T02:46:16;19.80;;;12.53;;
5813;SDS011;2933;52.302;8.134;2023-11-19T02:51:19;18.00;;;11.47;;
5813;SDS011;2933;52.302;8.134;2023-11-19T02:56:20;21.23;;;12.53;;
5813;SDS011;2933;52.302;8.134;2023-11-19T03:01:27;24.03;;;13.30;;
5813;SDS011;2933;52.302;8.134;2023-11-19T03:06:30;21.37;;;12.00;;
5813;SDS011;2933;52.302;8.134;2023-11-19T03:11:32;27.30;;;11.23;;
5813;SDS011;2933;52.302;8.134;2023-11-19T03:16:35;29.33;;;13.80;;
5813;SDS011;2933;52.302;8.134;2023-11-19T03:21:36;19.90;;;12.47;;
5813;SDS011;2933;52.302;8.134;2023-11-19T03:26:38;29.37;;;13.80;;
5813;SDS011;2933;52.302;8.134;2023-11-19T03:31:42;21.10;;;12.03;;
5813;SDS011;2933;52.302;8.134;2023-11-19T03:36:44;38.33;;;12.73;;
5813;SDS011;2933;52.302;8.134;2023-11-19T03:41:46;23.13;;;11.83;;
5813;SDS011;2933;52.302;8.134;2023-11-19T03:46:49;25.70;;;12.57;;
5813;SDS011;2933;52.302;8.134;2023-11-19T03:51:51;21.27;;;11.93;;
5813;SDS011;2933;52.302;8.134;2023-11-19T03:56:52;20.00;;;11.43;;
5813;SDS011;2933;52.302;8.134;2023-11-19T04:01:55;22.93;;;11.80;;
5813;SDS011;2933;52.302;8.134;2023-11-19T04:07:00;20.33;;;11.43;;
5813;SDS011;2933;52.302;8.134;2023-11-19T04:12:03;37.10;;;11.40;;
5813;SDS011;2933;52.302;8.134;2023-11-19T04:17:06;20.73;;;12.20;;
5813;SDS011;2933;52.302;8.134;2023-11-19T04:22:08;20.83;;;10.90;;
5813;SDS011;2933;52.302;8.134;2023-11-19T04:27:10;22.03;;;11.30;;
5813;SDS011;2933;52.302;8.134;2023-11-19T04:32:13;25.93;;;10.57;;
5813;SDS011;2933;52.302;8.134;2023-11-19T04:37:15;21.13;;;10.17;;
5813;SDS011;2933;52.302;8.134;2023-11-19T04:42:17;24.93;;;9.17;;
5813;SDS011;2933;52.302;8.134;2023-11-19T04:47:20;20.77;;;8.30;;
5813;SDS011;2933;52.302;8.134;2023-11-19T04:52:21;23.20;;;7.50;;
5813;SDS011;2933;52.302;8.134;2023-11-19T04:57:23;15.10;;;7.90;;
5813;SDS011;2933;52.302;8.134;2023-11-19T05:02:26;21.47;;;6.50;;
5813;SDS011;2933;52.302;8.134;2023-11-19T05:07:27;9.43;;;6.03;;
5813;SDS011;2933;52.302;8.134;2023-11-19T05:12:29;10.93;;;4.90;;
5813;SDS011;2933;52.302;8.134;2023-11-19T05:17:32;15.37;;;4.43;;
5813;SDS011;2933;52.302;8.134;2023-11-19T05:22:34;26.30;;;5.00;;
5813;SDS011;2933;52.302;8.134;2023-11-19T05:27:37;24.97;;;4.33;;
5813;SDS011;2933;52.302;8.134;2023-11-19T05:32:40;9.20;;;3.20;;
5813;SDS011;2933;52.302;8.134;2023-11-19T05:37:42;16.10;;;4.07;;
5813;SDS011;2933;52.302;8.134;2023-11-19T05:42:43;21.67;;;5.23;;
5813;SDS011;2933;52.302;8.134;2023-11-19T05:47:46;17.83;;;4.50;;
5813;SDS011;2933;52.302;8.134;2023-11-19T05:52:48;19.70;;;3.70;;
5813;SDS011;2933;52.302;8.134;2023-11-19T05:57:49;27.93;;;4.50;;
5813;SDS011;2933;52.302;8.134;2023-11-19T06:02:53;22.53;;;4.00;;
5813;SDS011;2933;52.302;8.134;2023-11-19T06:07:54;11.57;;;4.17;;
5813;SDS011;2933;52.302;8.134;2023-11-19T06:12:57;25.23;;;3.57;;
5813;SDS011;2933;52.302;8.134;2023-11-19T06:18:01;21.27;;;4.60;;
5813;SDS011;2933;52.302;8.134;2023-11-19T06:23:03;23.77;;;3.80;;
5813;SDS011;2933;52.302;8.134;2023-11-19T06:28:05;22.57;;;3.90;;
5813;SDS011;2933;52.302;8.134;2023-11-19T06:33:08;22.60;;;3.43;;
5813;SDS011;2933;52.302;8.134;2023-11-19T06:38:10;14.57;;;3.20;;
5813;SDS011;2933;52.302;8.134;2023-11-19T06:43:11;26.57;;;3.93;;
5813;SDS011;2933;52.302;8.134;2023-11-19T06:48:15;31.97;;;3.63;;
5813;SDS011;2933;52.302;8.134;2023-11-19T06:53:17;37.77;;;3.70;;
5813;SDS011;2933;52.302;8.134;2023-11-19T06:58:18;15.67;;;3.37;;
5813;SDS011;2933;52.302;8.134;2023-11-19T07:03:21;34.13;;;4.10;;
5813;SDS011;2933;52.302;8.134;2023-11-19T07:08:23;31.87;;;3.90;;
5813;SDS011;2933;52.302;8.134;2023-11-19T07:13:24;19.70;;;3.70;;
5813;SDS011;2933;52.302;8.134;2023-11-19T07:18:29;19.73;;;3.60;;
5813;SDS011;2933;52.302;8.134;2023-11-19T07:23:31;19.97;;;4.57;;
5813;SDS011;2933;52.302;8.134;2023-11-19T07:28:34;21.37;;;3.97;;
5813;SDS011;2933;52.302;8.134;2023-11-19T07:33:37;29.67;;;3.60;;
5813;SDS011;2933;52.302;8.134;2023-11-19T07:38:42;37.77;;;3.90;;
5813;SDS011;2933;52.302;8.134;2023-11-19T07:43:44;29.83;;;3.67;;
5813;SDS011;2933;52.302;8.134;2023-11-19T07:48:48;35.17;;;3.93;;
5813;SDS011;2933;52.302;8.134;2023-11-19T07:53:49;22.87;;;4.03;;
5813;SDS011;2933;52.302;8.134;2023-11-19T07:58:51;24.30;;;3.70;;
5813;SDS011;2933;52.302;8.134;2023-11-19T08:03:54;19.50;;;3.67;;
5813;SDS011;2933;52.302;8.134;2023-11-19T08:08:56;21.73;;;3.70;;
5813;SDS011;2933;52.302;8.134;2023-11-19T08:13:57;25.63;;;2.80;;
5813;SDS011;2933;52.302;8.134;2023-11-19T08:19:00;28.93;;;4.20;;
5813;SDS011;2933;52.302;8.134;2023-11-19T08:24:03;14.67;;;3.50;;
5813;SDS011;2933;52.302;8.134;2023-11-19T08:29:05;21.40;;;3.80;;
5813;SDS011;2933;52.302;8.134;2023-11-19T08:34:08;23.90;;;4.10;;
5813;SDS011;2933;52.302;8.134;2023-11-19T08:39:10;26.63;;;3.40;;
5813;SDS011;2933;52.302;8.134;2023-11-19T08:44:11;23.20;;;3.50;;
5813;SDS011;2933;52.302;8.134;2023-11-19T08:49:14;16.00;;;2.90;;
5813;SDS011;2933;52.302;8.134;2023-11-19T08:54:16;24.67;;;3.90;;
5813;SDS011;2933;52.302;8.134;2023-11-19T08:59:17;25.70;;;2.80;;
5813;SDS011;2933;52.302;8.134;2023-11-19T09:04:21;15.17;;;3.50;;
5813;SDS011;2933;52.302;8.134;2023-11-19T09:09:23;11.67;;;3.07;;
5813;SDS011;2933;52.302;8.134;2023-11-19T09:14:25;27.20;;;4.27;;
5813;SDS011;2933;52.302;8.134;2023-11-19T09:19:28;16.33;;;3.20;;
5813;SDS011;2933;52.302;8.134;2023-11-19T09:24:29;32.07;;;5.27;;
5813;SDS011;2933;52.302;8.134;2023-11-19T09:29:31;11.47;;;3.07;;
5813;SDS011;2933;52.302;8.134;2023-11-19T09:34:34;28.13;;;3.73;;
5813;SDS011;2933;52.302;8.134;2023-11-19T09:39:36;21.20;;;3.90;;
5813;SDS011;2933;52.302;8.134;2023-11-19T09:44:37;29.20;;;4.00;;
5813;SDS011;2933;52.302;8.134;2023-11-19T09:49:41;36.87;;;5.30;;
5813;SDS011;2933;52.302;8.134;2023-11-19T09:54:43;27.07;;;4.20;;
5813;SDS011;2933;52.302;8.134;2023-11-19T09:59:45;32.00;;;3.93;;
5813;SDS011;2933;52.302;8.134;2023-11-19T10:04:49;29.83;;;4.60;;
5813;SDS011;2933;52.302;8.134;2023-11-19T10:09:52;30.63;;;4.13;;
5813;SDS011;2933;52.302;8.134;2023-11-19T10:14:53;25.70;;;3.50;;
5813;SDS011;2933;52.302;8.134;2023-11-19T10:19:59;25.97;;;3.73;;
5813;SDS011;2933;52.302;8.134;2023-11-19T10:25:00;23.40;;;3.00;;
5813;SDS011;2933;52.302;8.134;2023-11-19T10:30:02;18.57;;;3.03;;
5813;SDS011;2933;52.302;8.134;2023-11-19T10:35:06;24.47;;;3.50;;
5813;SDS011;2933;52.302;8.134;2023-11-19T10:40:09;32.23;;;4.50;;
5813;SDS011;2933;52.302;8.134;2023-11-19T10:45:21;36.77;;;4.43;;
5813;SDS011;2933;52.302;8.134;2023-11-19T10:50:25;16.00;;;3.53;;
5813;SDS011;2933;52.302;8.134;2023-11-19T10:55:27;21.13;;;3.80;;
5813;SDS011;2933;52.302;8.134;2023-11-19T11:00:34;33.80;;;5.50;;
5813;SDS011;2933;52.302;8.134;2023-11-19T11:05:40;18.80;;;2.97;;
5813;SDS011;2933;52.302;8.134;2023-11-19T11:10:43;23.13;;;3.80;;
5813;SDS011;2933;52.302;8.134;2023-11-19T11:15:46;23.90;;;3.37;;
5813;SDS011;2933;52.302;8.134;2023-11-19T11:20:49;23.27;;;4.00;;
5813;SDS011;2933;52.302;8.134;2023-11-19T11:25:56;22.97;;;4.43;;
5813;SDS011;2933;52.302;8.134;2023-11-19T11:31:15;26.37;;;3.97;;
5813;SDS011;2933;52.302;8.134;2023-11-19T11:36:28;22.37;;;4.40;;
5813;SDS011;2933;52.302;8.134;2023-11-19T11:41:32;22.73;;;2.87;;
5813;SDS011;2933;52.302;8.134;2023-11-19T11:51:59;25.67;;;3.83;;
5813;SDS011;2933;52.302;8.134;2023-11-19T11:57:02;17.43;;;3.67;;
5813;SDS011;2933;52.302;8.134;2023-11-19T12:02:07;23.87;;;3.90;;
5813;SDS011;2933;52.302;8.134;2023-11-19T12:07:13;31.33;;;4.53;;
5813;SDS011;2933;52.302;8.134;2023-11-19T12:12:19;23.43;;;4.40;;
5813;SDS011;2933;52.302;8.134;2023-11-19T12:17:41;20.63;;;3.83;;
5813;SDS011;2933;52.302;8.134;2023-11-19T12:22:51;27.33;;;4.17;;
5813;SDS011;2933;52.302;8.134;2023-11-19T12:27:53;23.00;;;3.87;;
5813;SDS011;2933;52.302;8.134;2023-11-19T12:32:55;18.47;;;3.40;;
5813;SDS011;2933;52.302;8.134;2023-11-19T12:37:58;25.03;;;3.13;;
5813;SDS011;2933;52.302;8.134;2023-11-19T12:42:59;22.50;;;4.43;;
5813;SDS011;2933;52.302;8.134;2023-11-19T12:48:05;15.93;;;4.03;;
5813;SDS011;2933;52.302;8.134;2023-11-19T12:53:09;24.17;;;3.87;;
5813;SDS011;2933;52.302;8.134;2023-11-19T13:03:30;18.47;;;3.20;;
5813;SDS011;2933;52.302;8.134;2023-11-19T13:08:37;11.80;;;2.77;;
5813;SDS011;2933;52.302;8.134;2023-11-19T13:13:55;15.80;;;3.40;;
5813;SDS011;2933;52.302;8.134;2023-11-19T13:18:57;26.17;;;4.17;;
5813;SDS011;2933;52.302;8.134;2023-11-19T13:24:01;16.47;;;3.10;;
5813;SDS011;2933;52.302;8.134;2023-11-19T13:29:03;15.80;;;2.90;;
5813;SDS011;2933;52.302;8.134;2023-11-19T13:34:05;28.47;;;2.53;;
5813;SDS011;2933;52.302;8.134;2023-11-19T13:39:08;13.67;;;2.80;;
5813;SDS011;2933;52.302;8.134;2023-11-19T13:44:12;29.30;;;3.63;;
5813;SDS011;2933;52.302;8.134;2023-11-19T13:49:13;28.63;;;3.27;;
5813;SDS011;2933;52.302;8.134;2023-11-19T13:54:17;20.47;;;3.57;;
5813;SDS011;2933;52.302;8.134;2023-11-19T13:59:19;11.80;;;3.53;;
5813;SDS011;2933;52.302;8.134;2023-11-19T14:04:21;16.50;;;3.47;;
5813;SDS011;2933;52.302;8.134;2023-11-19T14:09:24;28.07;;;4.33;;
5813;SDS011;2933;52.302;8.134;2023-11-19T14:14:25;24.13;;;3.80;;
5813;SDS011;2933;52.302;8.134;2023-11-19T14:19:27;15.03;;;3.40;;
5813;SDS011;2933;52.302;8.134;2023-11-19T14:24:30;18.43;;;3.50;;
5813;SDS011;2933;52.302;8.134;2023-11-19T14:29:32;15.70;;;3.10;;
5813;SDS011;2933;52.302;8.134;2023-11-19T14:34:34;19.20;;;3.87;;
5813;SDS011;2933;52.302;8.134;2023-11-19T14:39:37;11.20;;;2.17;;
5813;SDS011;2933;52.302;8.134;2023-11-19T14:44:38;22.07;;;3.10;;
5813;SDS011;2933;52.302;8.134;2023-11-19T14:49:40;17.07;;;2.73;;
5813;SDS011;2933;52.302;8.134;2023-11-19T14:54:43;17.40;;;3.37;;
5813;SDS011;2933;52.302;8.134;2023-11-19T14:59:44;13.67;;;2.37;;
5813;SDS011;2933;52.302;8.134;2023-11-19T15:04:47;20.03;;;3.43;;
5813;SDS011;2933;52.302;8.134;2023-11-19T15:09:50;12.77;;;2.80;;
5813;SDS011;2933;52.302;8.134;2023-11-19T15:14:52;17.70;;;2.50;;
5813;SDS011;2933;52.302;8.134;2023-11-19T15:19:53;16.43;;;3.00;;
5813;SDS011;2933;52.302;8.134;2023-11-19T15:24:56;14.13;;;2.53;;
5813;SDS011;2933;52.302;8.134;2023-11-19T15:29:58;13.70;;;2.60;;
5813;SDS011;2933;52.302;8.134;2023-11-19T15:34:59;11.70;;;2.87;;
5813;SDS011;2933;52.302;8.134;2023-11-19T15:40:03;27.57;;;2.93;;
5813;SDS011;2933;52.302;8.134;2023-11-19T15:45:08;15.10;;;2.00;;
5813;SDS011;2933;52.302;8.134;2023-11-19T15:50:11;9.17;;;2.57;;
5813;SDS011;2933;52.302;8.134;2023-11-19T15:55:15;22.13;;;2.90;;
5813;SDS011;2933;52.302;8.134;2023-11-19T16:00:17;14.13;;;2.73;;
5813;SDS011;2933;52.302;8.134;2023-11-19T16:05:21;18.30;;;3.23;;
5813;SDS011;2933;52.302;8.134;2023-11-19T16:10:25;18.77;;;2.70;;
5813;SDS011;2933;52.302;8.134;2023-11-19T16:15:27;16.33;;;2.90;;
5813;SDS011;2933;52.302;8.134;2023-11-19T16:20:28;14.97;;;2.37;;
5813;SDS011;2933;52.302;8.134;2023-11-19T16:25:32;8.23;;;2.40;;
5813;SDS011;2933;52.302;8.134;2023-11-19T16:30:35;15.90;;;2.00;;
5813;SDS011;2933;52.302;8.134;2023-11-19T16:35:37;14.23;;;2.43;;
5813;SDS011;2933;52.302;8.134;2023-11-19T16:40:39;8.47;;;2.20;;
5813;SDS011;2933;52.302;8.134;2023-11-19T16:45:42;11.37;;;3.70;;
5813;SDS011;2933;52.302;8.134;2023-11-19T16:50:45;11.07;;;2.73;;
5813;SDS011;2933;52.302;8.134;2023-11-19T16:55:50;15.50;;;2.50;;
5813;SDS011;2933;52.302;8.134;2023-11-19T17:00:51;12.10;;;2.43;;
5813;SDS011;2933;52.302;8.134;2023-11-19T17:05:54;9.10;;;3.00;;
5813;SDS011;2933;52.302;8.134;2023-11-19T17:10:58;11.00;;;2.30;;
5813;SDS011;2933;52.302;8.134;2023-11-19T17:15:59;8.43;;;2.47;;
5813;SDS011;2933;52.302;8.134;2023-11-19T17:21:01;12.63;;;2.40;;
5813;SDS011;2933;52.302;8.134;2023-11-19T17:26:08;15.40;;;2.50;;
5813;SDS011;2933;52.302;8.134;2023-11-19T17:31:11;19.20;;;3.90;;
5813;SDS011;2933;52.302;8.134;2023-11-19T17:36:14;13.33;;;2.90;;
5813;SDS011;2933;52.302;8.134;2023-11-19T17:41:18;7.13;;;2.43;;
5813;SDS011;2933;52.302;8.134;2023-11-19T17:46:20;7.53;;;2.87;;
5813;SDS011;2933;52.302;8.134;2023-11-19T17:51:21;15.47;;;2.43;;
5813;SDS011;2933;52.302;8.134;2023-11-19T17:56:24;20.33;;;2.90;;
5813;SDS011;2933;52.302;8.134;2023-11-19T18:01:26;9.37;;;2.23;;
5813;SDS011;2933;52.302;8.134;2023-11-19T18:06:27;15.47;;;2.37;;
5813;SDS011;2933;52.302;8.134;2023-11-19T18:11:31;10.97;;;2.20;;
5813;SDS011;2933;52.302;8.134;2023-11-19T18:16:38;12.70;;;2.13;;
5813;SDS011;2933;52.302;8.134;2023-11-19T18:21:40;9.80;;;2.23;;
5813;SDS011;2933;52.302;8.134;2023-11-19T18:26:43;13.83;;;2.43;;
5813;SDS011;2933;52.302;8.134;2023-11-19T18:31:44;6.70;;;1.90;;
5813;SDS011;2933;52.302;8.134;2023-11-19T18:36:49;5.30;;;1.97;;
5813;SDS011;2933;52.302;8.134;2023-11-19T18:41:52;11.33;;;2.83;;
5813;SDS011;2933;52.302;8.134;2023-11-19T18:46:54;12.13;;;2.80;;
5813;SDS011;2933;52.302;8.134;2023-11-19T18:51:57;18.37;;;2.77;;
5813;SDS011;2933;52.302;8.134;2023-11-19T18:57:00;17.63;;;2.90;;
5813;SDS011;2933;52.302;8.134;2023-11-19T19:02:03;12.60;;;2.67;;
5813;SDS011;2933;52.302;8.134;2023-11-19T19:07:06;13.30;;;2.53;;
5813;SDS011;2933;52.302;8.134;2023-11-19T19:12:09;14.83;;;3.10;;
5813;SDS011;2933;52.302;8.134;2023-11-19T19:17:11;14.90;;;2.90;;
5813;SDS011;2933;52.302;8.134;2023-11-19T19:22:13;14.40;;;3.37;;
5813;SDS011;2933;52.302;8.134;2023-11-19T19:27:16;23.60;;;3.30;;
5813;SDS011;2933;52.302;8.134;2023-11-19T19:32:17;13.60;;;2.70;;
5813;SDS011;2933;52.302;8.134;2023-11-19T19:37:19;7.83;;;2.30;;
5813;SDS011;2933;52.302;8.134;2023-11-19T19:42:23;12.27;;;3.17;;
5813;SDS011;2933;52.302;8.134;2023-11-19T19:47:26;5.40;;;2.20;;
5813;SDS011;2933;52.302;8.134;2023-11-19T19:52:29;5.07;;;2.37;;
5813;SDS011;2933;52.302;8.134;2023-11-19T19:57:34;6.57;;;3.20;;
5813;SDS011;2933;52.302;8.134;2023-11-19T20:02:36;7.60;;;2.77;;
5813;SDS011;2933;52.302;8.134;2023-11-19T20:07:38;4.73;;;2.10;;
5813;SDS011;2933;52.302;8.134;2023-11-19T20:12:41;3.33;;;1.90;;
5813;SDS011;2933;52.302;8.134;2023-11-19T20:17:43;3.10;;;1.77;;
5813;SDS011;2933;52.302;8.134;2023-11-19T20:22:44;4.40;;;1.33;;
5813;SDS011;2933;52.302;8.134;2023-11-19T20:27:48;6.70;;;1.33;;
5813;SDS011;2933;52.302;8.134;2023-11-19T20:32:50;4.23;;;1.23;;
5813;SDS011;2933;52.302;8.134;2023-11-19T20:37:52;1.03;;;1.00;;
5813;SDS011;2933;52.302;8.134;2023-11-19T20:42:56;2.93;;;1.53;;
5813;SDS011;2933;52.302;8.134;2023-11-19T20:47:58;1.43;;;1.33;;
5813;SDS011;2933;52.302;8.134;2023-11-19T20:53:00;3.33;;;1.83;;
5813;SDS011;2933;52.302;8.134;2023-11-19T20:58:04;1.33;;;1.13;;
5813;SDS011;2933;52.302;8.134;2023-11-19T21:03:09;3.60;;;1.20;;
5813;SDS011;2933;52.302;8.134;2023-11-19T21:08:11;0.80;;;0.80;;
5813;SDS011;2933;52.302;8.134;2023-11-19T21:13:16;2.30;;;1.37;;
5813;SDS011;2933;52.302;8.134;2023-11-19T21:18:18;2.73;;;1.00;;
5813;SDS011;2933;52.302;8.134;2023-11-19T21:23:20;1.63;;;0.80;;
5813;SDS011;2933;52.302;8.134;2023-11-19T21:28:23;1.73;;;1.13;;
5813;SDS011;2933;52.302;8.134;2023-11-19T21:33:26;0.80;;;0.80;;
5813;SDS011;2933;52.302;8.134;2023-11-19T21:38:28;2.40;;;1.07;;
5813;SDS011;2933;52.302;8.134;2023-11-19T21:43:31;1.00;;;1.00;;
5813;SDS011;2933;52.302;8.134;2023-11-19T21:48:33;2.10;;;1.27;;
5813;SDS011;2933;52.302;8.134;2023-11-19T21:53:35;1.57;;;1.47;;
5813;SDS011;2933;52.302;8.134;2023-11-19T21:58:39;1.70;;;1.20;;
5813;SDS011;2933;52.302;8.134;2023-11-19T22:03:41;1.53;;;1.27;;
5813;SDS011;2933;52.302;8.134;2023-11-19T22:08:42;1.40;;;1.10;;
5813;SDS011;2933;52.302;8.134;2023-11-19T22:13:45;1.23;;;1.13;;
5813;SDS011;2933;52.302;8.134;2023-11-19T22:18:47;0.80;;;0.80;;
5813;SDS011;2933;52.302;8.134;2023-11-19T22:23:48;0.93;;;0.93;;
5813;SDS011;2933;52.302;8.134;2023-11-19T22:28:51;0.90;;;0.90;;
5813;SDS011;2933;52.302;8.134;2023-11-19T22:33:53;1.33;;;0.70;;
5813;SDS011;2933;52.302;8.134;2023-11-19T22:38:54;0.73;;;0.70;;
5813;SDS011;2933;52.302;8.134;2023-11-19T22:43:58;0.87;;;0.87;;
5813;SDS011;2933;52.302;8.134;2023-11-19T22:48:59;5.13;;;1.00;;
5813;SDS011;2933;52.302;8.134;2023-11-19T22:54:01;1.30;;;0.90;;
5813;SDS011;2933;52.302;8.134;2023-11-19T22:59:05;0.93;;;0.93;;
5813;SDS011;2933;52.302;8.134;2023-11-19T23:04:06;2.00;;;1.10;;
5813;SDS011;2933;52.302;8.134;2023-11-19T23:09:08;1.37;;;1.27;;
5813;SDS011;2933;52.302;8.134;2023-11-19T23:14:11;1.10;;;1.10;;
5813;SDS011;2933;52.302;8.134;2023-11-19T23:19:14;1.37;;;1.20;;
5813;SDS011;2933;52.302;8.134;2023-11-19T23:24:16;2.30;;;1.40;;
5813;SDS011;2933;52.302;8.134;2023-11-19T23:29:19;7.40;;;1.50;;
5813;SDS011;2933;52.302;8.134;2023-11-19T23:34:20;1.10;;;1.10;;
5813;SDS011;2933;52.302;8.134;2023-11-19T23:39:22;1.10;;;1.00;;
5813;SDS011;2933;52.302;8.134;2023-11-19T23:44:26;1.90;;;1.20;;
5813;SDS011;2933;52.302;8.134;2023-11-19T23:49:28;2.60;;;1.60;;
5813;SDS011;2933;52.302;8.134;2023-11-19T23:54:31;1.10;;;1.10;;
5813;SDS011;2933;52.302;8.134;2023-11-19T23:59:34;1.67;;;1.57;;
